Terminal Aerodrome Forecast
Issued by NWS Boston, MA

Home | Current Version | Previous Version | Text Only | Print | Product List | Glossary On
Versions: 1 2 3 4 5 6 7 8 9 10 11 12 13 14 15 16 17 18 19 20 21 22 23 24 25 26
000
FTUS41 KBOX 272333
TAFORH
TAF
KORH 272333Z 2800/2824 01004KT 1/4SM -DZ FG OVC002
     FM280700 VRB03KT 1/2SM -DZ FG OVC002
     FM280900 VRB03KT 3/4SM -DZ BR BKN002
     FM281300 VRB03KT 3/4SM BR VCSH OVC003
     FM281500 10004KT 3/4SM BR VCSH OVC003
     FM281800 08004KT 3/4SM -SHRA BR OVC003=

USA.gov is the U.S. government's official web portal to all federal, state and local government web resources and services.